createdAt,value
2019-03-05T00:01:17.940Z,6.90
2019-03-05T00:03:19.685Z,6.90
2019-03-05T00:05:21.491Z,6.90
2019-03-05T00:07:23.192Z,6.90
2019-03-05T00:09:24.929Z,6.90
2019-03-05T00:11:26.662Z,6.90
2019-03-05T00:13:28.358Z,6.90
2019-03-05T00:15:30.590Z,6.90
2019-03-05T00:17:32.675Z,6.90
2019-03-05T00:19:34.390Z,6.90
2019-03-05T00:21:36.114Z,6.90
2019-03-05T00:23:55.097Z,6.90
2019-03-05T00:25:56.812Z,6.90
2019-03-05T00:28:10.718Z,6.90
2019-03-05T00:30:19.445Z,6.90
2019-03-05T00:32:21.645Z,6.90
2019-03-05T00:34:37.518Z,7.00
2019-03-05T00:36:55.481Z,6.90
2019-03-05T00:39:27.225Z,7.00
2019-03-05T00:41:33.521Z,7.00
2019-03-05T00:43:42.845Z,7.00
2019-03-05T00:45:58.304Z,7.00
2019-03-05T00:48:13.781Z,7.00
2019-03-05T00:50:44.729Z,7.00
2019-03-05T00:53:10.205Z,7.00
2019-03-05T00:55:34.608Z,7.00
2019-03-05T00:57:43.384Z,7.10
2019-03-05T01:00:08.217Z,7.00
2019-03-05T01:02:42.869Z,7.00
2019-03-05T01:05:04.478Z,7.10
2019-03-05T01:07:06.405Z,7.10
2019-03-05T01:09:16.877Z,7.10
2019-03-05T01:11:19.876Z,7.10
2019-03-05T01:13:21.697Z,7.10
2019-03-05T01:15:23.577Z,7.10
2019-03-05T01:17:25.274Z,7.10
2019-03-05T01:19:27.017Z,7.10
2019-03-05T01:21:29.029Z,7.10
2019-03-05T01:23:30.729Z,7.10
2019-03-05T01:25:33.010Z,7.10
2019-03-05T01:27:34.704Z,7.10
2019-03-05T01:29:36.417Z,7.10
2019-03-05T01:31:46.646Z,7.10
2019-03-05T01:33:56.893Z,7.10
2019-03-05T01:36:03.285Z,7.20
2019-03-05T01:38:04.993Z,7.20
2019-03-05T01:40:28.725Z,7.20
2019-03-05T01:42:30.432Z,7.20
2019-03-05T01:44:32.133Z,7.20
2019-03-05T01:46:34.197Z,7.20
2019-03-05T01:48:35.996Z,7.20
2019-03-05T01:50:37.749Z,7.20
2019-03-05T01:52:39.578Z,7.20
2019-03-05T01:54:41.281Z,7.20
2019-03-05T01:56:42.989Z,7.20
2019-03-05T01:58:44.905Z,7.20
2019-03-05T02:00:46.618Z,7.20
2019-03-05T02:02:48.429Z,7.20
2019-03-05T02:04:50.304Z,7.20
2019-03-05T02:06:52.207Z,7.20
2019-03-05T02:08:54.198Z,7.20
2019-03-05T02:10:55.901Z,7.20
2019-03-05T02:12:57.709Z,7.20
2019-03-05T02:14:59.433Z,7.20
2019-03-05T02:17:01.237Z,7.20
2019-03-05T02:19:56.441Z,7.10
2019-03-05T02:21:58.193Z,7.00
2019-03-05T02:24:26.290Z,6.80
2019-03-05T02:27:06.352Z,6.70
2019-03-05T02:29:20.392Z,6.60
2019-03-05T02:32:07.085Z,6.60
2019-03-05T02:34:30.526Z,6.50
2019-03-05T02:37:10.749Z,6.40
2019-03-05T02:39:50.764Z,6.40
2019-03-05T02:42:02.177Z,6.40
2019-03-05T02:44:19.148Z,6.30
2019-03-05T02:46:55.721Z,6.30
2019-03-05T02:49:45.804Z,6.30
2019-03-05T02:52:08.065Z,6.30
2019-03-05T02:54:43.275Z,6.10
2019-03-05T02:56:54.332Z,6.00
2019-03-05T02:58:55.358Z,6.00
2019-03-05T03:01:04.963Z,6.00
2019-03-05T03:03:14.805Z,6.00
2019-03-05T03:05:29.772Z,6.00
2019-03-05T03:07:32.004Z,5.90
2019-03-05T03:10:05.081Z,6.00
2019-03-05T03:12:06.884Z,6.00
2019-03-05T03:14:08.605Z,6.00
2019-03-05T03:16:10.562Z,6.10
2019-03-05T03:18:12.952Z,6.10
2019-03-05T03:20:16.501Z,6.10
2019-03-05T03:22:18.271Z,6.10
2019-03-05T03:24:20.057Z,6.20
2019-03-05T03:26:21.757Z,6.20
2019-03-05T03:28:23.469Z,6.20
2019-03-05T03:30:26.433Z,6.20
2019-03-05T03:32:28.213Z,6.20
2019-03-05T03:34:30.297Z,6.20
2019-03-05T03:36:31.988Z,6.20
2019-03-05T03:38:33.689Z,6.20
2019-03-05T03:40:35.875Z,6.20
2019-03-05T03:42:37.700Z,6.20
2019-03-05T03:44:39.398Z,6.10
2019-03-05T03:46:41.106Z,6.10
2019-03-05T03:48:42.797Z,6.10
2019-03-05T03:50:44.522Z,6.10
2019-03-05T03:52:46.258Z,6.10
2019-03-05T03:54:48.036Z,6.10
2019-03-05T03:56:49.837Z,6.10
2019-03-05T03:58:51.632Z,6.10
2019-03-05T04:00:53.606Z,6.10
2019-03-05T04:02:55.307Z,6.10
2019-03-05T04:04:57.012Z,6.20
2019-03-05T04:06:58.832Z,6.10
2019-03-05T04:09:00.629Z,6.10
2019-03-05T04:11:02.589Z,6.10
2019-03-05T04:13:04.394Z,6.10
2019-03-05T04:15:08.111Z,6.00
2019-03-05T04:17:09.861Z,6.00
2019-03-05T04:19:13.964Z,6.00
2019-03-05T04:21:15.789Z,6.00
2019-03-05T04:23:17.702Z,6.00
2019-03-05T04:25:19.502Z,6.00
2019-03-05T04:27:21.213Z,6.00
2019-03-05T04:29:23.016Z,6.00
2019-03-05T04:31:24.714Z,6.00
2019-03-05T04:33:26.446Z,6.00
2019-03-05T04:35:28.137Z,6.00
2019-03-05T04:37:29.837Z,6.00
2019-03-05T04:39:31.652Z,6.00
2019-03-05T04:41:33.373Z,6.10
2019-03-05T04:43:35.109Z,6.10
2019-03-05T04:46:08.858Z,6.00
2019-03-05T04:48:10.826Z,6.10
2019-03-05T04:50:26.149Z,6.00
2019-03-05T04:52:30.697Z,6.00
2019-03-05T04:54:32.410Z,6.00
2019-03-05T04:56:34.113Z,6.00
2019-03-05T04:58:35.809Z,6.00
2019-03-05T05:00:37.509Z,6.00
2019-03-05T05:02:39.247Z,6.00
2019-03-05T05:04:41.035Z,6.10
2019-03-05T05:06:42.832Z,6.00
2019-03-05T05:08:44.644Z,6.10
2019-03-05T05:10:46.384Z,6.10
2019-03-05T05:12:48.080Z,6.00
2019-03-05T05:14:49.813Z,6.00
2019-03-05T05:16:51.510Z,6.00
2019-03-05T05:18:53.206Z,5.90
2019-03-05T05:20:54.936Z,5.90
2019-03-05T05:22:56.730Z,5.90
2019-03-05T05:24:58.418Z,5.90
2019-03-05T05:27:00.297Z,5.90
2019-03-05T05:29:02.478Z,5.80
2019-03-05T05:31:04.184Z,5.80
2019-03-05T05:33:06.142Z,5.80
2019-03-05T05:35:07.838Z,5.70
2019-03-05T05:37:09.575Z,5.70
2019-03-05T05:39:48.176Z,5.60
2019-03-05T05:41:49.873Z,5.40
2019-03-05T05:43:51.689Z,5.40
2019-03-05T05:45:53.817Z,5.40
2019-03-05T05:47:55.601Z,5.40
2019-03-05T05:49:57.290Z,5.50
2019-03-05T05:51:59.121Z,5.50
2019-03-05T05:54:00.828Z,5.50
2019-03-05T05:56:02.518Z,5.50
2019-03-05T05:58:04.348Z,5.50
2019-03-05T06:00:08.424Z,5.60
2019-03-05T06:02:10.129Z,5.60
2019-03-05T06:04:11.886Z,5.60
2019-03-05T06:06:13.704Z,5.70
2019-03-05T06:08:15.408Z,5.70
2019-03-05T06:10:17.300Z,5.80
2019-03-05T06:12:19.133Z,5.80
2019-03-05T06:14:20.824Z,5.80
2019-03-05T06:16:22.527Z,5.80
2019-03-05T06:18:24.357Z,5.80
2019-03-05T06:20:26.164Z,5.80
2019-03-05T06:22:27.864Z,5.80
2019-03-05T06:24:29.589Z,5.70
2019-03-05T06:26:31.286Z,5.80
2019-03-05T06:28:32.980Z,5.80
2019-03-05T06:30:35.114Z,5.70
2019-03-05T06:32:37.116Z,5.70
2019-03-05T06:34:38.812Z,5.70
2019-03-05T06:36:51.805Z,5.70
2019-03-05T06:38:53.488Z,5.70
2019-03-05T06:40:55.296Z,5.80
2019-03-05T06:42:57.118Z,5.70
2019-03-05T06:44:58.838Z,5.70
2019-03-05T06:47:00.548Z,5.80
2019-03-05T06:49:02.274Z,5.80
2019-03-05T06:51:04.071Z,5.80
2019-03-05T06:53:06.377Z,5.80
2019-03-05T06:55:09.308Z,5.80
2019-03-05T06:57:11.254Z,5.80
2019-03-05T06:59:13.173Z,5.80
2019-03-05T07:01:15.009Z,5.80
2019-03-05T07:03:16.716Z,5.80
2019-03-05T07:05:55.255Z,5.90
2019-03-05T07:07:56.953Z,5.90
2019-03-05T07:10:12.570Z,6.00
2019-03-05T07:12:57.728Z,6.00
2019-03-05T07:15:24.889Z,6.00
2019-03-05T07:17:40.277Z,6.00
2019-03-05T07:19:58.265Z,5.90
2019-03-05T07:22:18.373Z,5.90
2019-03-05T07:24:43.065Z,5.90
2019-03-05T07:26:44.950Z,6.00
2019-03-05T07:28:46.669Z,5.90
2019-03-05T07:30:48.356Z,6.00
2019-03-05T07:32:50.488Z,6.00
2019-03-05T07:34:52.325Z,6.00
2019-03-05T07:36:54.150Z,5.90
2019-03-05T07:38:55.856Z,6.00
2019-03-05T07:40:57.553Z,6.00
2019-03-05T07:42:59.657Z,6.00
2019-03-05T07:45:01.348Z,6.00
2019-03-05T07:47:03.282Z,6.00
2019-03-05T07:49:05.398Z,6.10
2019-03-05T07:51:07.226Z,6.20
2019-03-05T07:53:09.060Z,6.10
2019-03-05T07:55:14.124Z,6.20
2019-03-05T07:57:16.037Z,6.40
2019-03-05T07:59:17.746Z,6.70
2019-03-05T08:01:22.499Z,6.90
2019-03-05T08:03:23.229Z,7.00
2019-03-05T08:05:24.925Z,7.10
2019-03-05T08:07:26.657Z,7.00
2019-03-05T08:09:30.046Z,6.80
2019-03-05T08:11:31.983Z,6.70
2019-03-05T08:13:47.908Z,6.60
2019-03-05T08:16:26.007Z,6.60
2019-03-05T08:18:27.705Z,6.60
2019-03-05T08:20:29.629Z,6.50
2019-03-05T08:22:31.358Z,6.50
2019-03-05T08:24:33.057Z,6.60
2019-03-05T08:26:34.804Z,6.70
2019-03-05T08:28:36.722Z,6.80
2019-03-05T08:30:38.713Z,6.80
2019-03-05T08:32:40.713Z,6.70
2019-03-05T08:34:42.429Z,6.60
2019-03-05T08:36:44.154Z,6.50
2019-03-05T08:38:46.033Z,6.60
2019-03-05T08:40:47.829Z,6.70
2019-03-05T08:42:49.913Z,6.70
2019-03-05T08:44:51.985Z,6.60
2019-03-05T08:46:54.200Z,6.60
2019-03-05T08:48:56.010Z,6.60
2019-03-05T08:50:57.810Z,6.60
2019-03-05T08:52:59.517Z,6.60
2019-03-05T08:55:01.219Z,6.50
2019-03-05T08:57:03.130Z,6.60
2019-03-05T08:59:04.945Z,6.60
2019-03-05T09:01:06.873Z,6.70
2019-03-05T09:03:08.639Z,6.70
2019-03-05T09:05:11.053Z,6.80
2019-03-05T09:07:12.792Z,6.70
2019-03-05T09:09:18.785Z,6.70
2019-03-05T09:11:25.379Z,6.70
2019-03-05T09:13:32.755Z,6.70
2019-03-05T09:15:32.313Z,6.60
2019-03-05T09:17:34.466Z,6.70
2019-03-05T09:19:36.465Z,6.70
2019-03-05T09:21:38.422Z,6.60
2019-03-05T09:23:40.129Z,6.60
2019-03-05T09:25:42.611Z,6.70
2019-03-05T09:27:44.417Z,6.60
2019-03-05T09:29:49.479Z,6.60
2019-03-05T09:31:51.259Z,6.60
2019-03-05T09:33:53.237Z,6.50
2019-03-05T09:35:54.943Z,6.50
2019-03-05T09:37:59.417Z,6.50
2019-03-05T09:40:01.255Z,6.40
2019-03-05T09:42:03.033Z,6.30
2019-03-05T09:44:05.461Z,6.20
2019-03-05T09:46:07.309Z,6.20
2019-03-05T09:48:09.194Z,6.20
2019-03-05T09:50:13.512Z,6.10
2019-03-05T09:52:15.247Z,6.00
2019-03-05T09:54:16.943Z,6.00
2019-03-05T09:56:19.173Z,6.10
2019-03-05T09:58:21.077Z,6.10
2019-03-05T10:00:24.751Z,6.10
2019-03-05T10:02:26.450Z,6.10
2019-03-05T10:04:30.093Z,6.20
2019-03-05T10:06:32.802Z,6.20
2019-03-05T10:08:35.053Z,6.20
2019-03-05T10:10:36.857Z,6.30
2019-03-05T10:12:39.397Z,6.30
2019-03-05T10:14:50.544Z,6.20
2019-03-05T10:16:52.371Z,6.20
2019-03-05T10:18:54.399Z,6.20
2019-03-05T10:20:56.235Z,6.00
2019-03-05T10:22:58.637Z,6.00
2019-03-05T10:25:05.868Z,6.10
2019-03-05T10:27:04.272Z,6.10
2019-03-05T10:29:06.274Z,6.10
2019-03-05T10:31:08.719Z,6.10
2019-03-05T10:33:11.470Z,6.20
2019-03-05T10:35:13.430Z,6.20
2019-03-05T10:37:18.975Z,6.20
2019-03-05T10:39:30.439Z,6.20
2019-03-05T10:41:28.649Z,6.40
2019-03-05T10:43:30.489Z,6.40
2019-03-05T10:45:32.330Z,6.40
2019-03-05T10:47:34.337Z,6.40
2019-03-05T10:49:36.109Z,6.40
2019-03-05T10:51:37.875Z,6.40
2019-03-05T10:53:39.701Z,6.30
2019-03-05T10:55:41.601Z,6.30
2019-03-05T10:57:44.404Z,6.20
2019-03-05T10:59:49.602Z,6.10
2019-03-05T11:01:52.217Z,5.90
2019-03-05T11:03:54.577Z,5.90
2019-03-05T11:05:56.660Z,5.90
2019-03-05T11:07:58.910Z,5.90
2019-03-05T11:10:00.845Z,5.80
2019-03-05T11:12:04.155Z,5.70
2019-03-05T11:14:06.061Z,5.70
2019-03-05T11:16:08.217Z,5.70
2019-03-05T11:18:10.526Z,5.80
2019-03-05T11:20:12.463Z,5.70
2019-03-05T11:22:14.689Z,5.70
2019-03-05T11:24:16.612Z,5.70
2019-03-05T11:26:18.406Z,5.70
2019-03-05T11:28:20.359Z,5.70
2019-03-05T11:30:35.062Z,5.80
2019-03-05T11:32:27.798Z,5.80
2019-03-05T11:34:29.565Z,5.80
2019-03-05T11:36:31.304Z,6.00
2019-03-05T11:38:33.108Z,6.00
2019-03-05T11:40:35.025Z,5.90
2019-03-05T11:42:36.829Z,6.00
2019-03-05T11:44:38.768Z,6.10
2019-03-05T11:46:40.580Z,6.20
2019-03-05T11:48:42.686Z,6.20
2019-03-05T11:50:44.892Z,6.10
2019-03-05T11:52:46.918Z,6.00
2019-03-05T11:54:48.701Z,6.10
2019-03-05T11:56:50.450Z,6.20
2019-03-05T11:58:52.154Z,6.20
2019-03-05T12:01:01.229Z,6.30
2019-03-05T12:03:03.282Z,6.30
2019-03-05T12:05:06.593Z,6.30
2019-03-05T12:07:08.351Z,6.30
2019-03-05T12:09:10.254Z,6.30
2019-03-05T12:11:12.164Z,6.40
2019-03-05T12:13:14.739Z,6.40
2019-03-05T12:15:16.992Z,6.40
2019-03-05T12:17:18.718Z,6.50
2019-03-05T12:19:20.616Z,6.40
2019-03-05T12:21:22.355Z,6.50
2019-03-05T12:23:24.151Z,6.50
2019-03-05T12:25:26.273Z,6.50
2019-03-05T12:27:28.012Z,6.60
2019-03-05T12:29:29.794Z,6.60
2019-03-05T12:31:31.496Z,6.50
2019-03-05T12:33:39.274Z,6.50
2019-03-05T12:36:00.626Z,6.50
2019-03-05T12:38:03.693Z,6.50
2019-03-05T12:40:07.177Z,6.50
2019-03-05T12:42:08.883Z,6.50
2019-03-05T12:44:10.690Z,6.40
2019-03-05T12:46:12.697Z,6.20
2019-03-05T12:48:14.504Z,6.10
2019-03-05T12:50:16.918Z,6.00
2019-03-05T12:52:18.937Z,5.90
2019-03-05T12:54:20.885Z,5.80
2019-03-05T12:56:24.170Z,5.80
2019-03-05T12:58:26.206Z,5.80
2019-03-05T13:00:28.963Z,5.70
2019-03-05T13:02:30.682Z,5.70
2019-03-05T13:04:32.394Z,5.70
2019-03-05T13:06:34.214Z,5.70
2019-03-05T13:08:38.897Z,5.70
2019-03-05T13:10:40.842Z,5.80
2019-03-05T13:12:42.670Z,5.80
2019-03-05T13:14:44.494Z,6.00
2019-03-05T13:16:46.334Z,5.90
2019-03-05T13:18:48.140Z,5.90
2019-03-05T13:20:49.965Z,6.00
2019-03-05T13:22:51.827Z,6.10
2019-03-05T13:24:53.533Z,6.30
2019-03-05T13:26:55.289Z,6.20
2019-03-05T13:28:57.021Z,6.30
2019-03-05T13:31:00.488Z,6.50
2019-03-05T13:33:02.484Z,6.70
2019-03-05T13:35:06.211Z,6.70
2019-03-05T13:37:07.940Z,6.70
2019-03-05T13:39:09.706Z,6.70
2019-03-05T13:41:12.105Z,6.80
2019-03-05T13:43:15.304Z,6.80
2019-03-05T13:45:17.296Z,6.80
2019-03-05T13:47:19.217Z,6.80
2019-03-05T13:50:14.169Z,6.90
2019-03-05T13:52:49.553Z,6.90
2019-03-05T13:55:29.142Z,7.00
2019-03-05T13:57:57.273Z,7.20
2019-03-05T13:59:59.090Z,7.20
2019-03-05T14:02:00.822Z,7.30
2019-03-05T14:04:06.753Z,7.80
2019-03-05T14:06:48.062Z,8.30
2019-03-05T14:09:12.566Z,8.20
2019-03-05T14:11:14.430Z,7.90
2019-03-05T14:13:17.061Z,7.90
2019-03-05T14:15:19.873Z,8.10
2019-03-05T14:17:23.295Z,8.50
2019-03-05T14:19:25.351Z,8.60
2019-03-05T14:21:27.638Z,8.30
2019-03-05T14:23:29.462Z,8.00
2019-03-05T14:25:31.205Z,8.20
2019-03-05T14:27:35.171Z,8.40
2019-03-05T14:29:37.121Z,8.70
2019-03-05T14:31:38.859Z,8.70
2019-03-05T14:33:40.681Z,8.90
2019-03-05T14:35:43.462Z,9.00
2019-03-05T14:37:45.518Z,9.50
2019-03-05T14:39:47.428Z,9.30
2019-03-05T14:41:49.479Z,9.40
2019-03-05T14:43:51.401Z,9.70
2019-03-05T14:45:53.481Z,10.50
2019-03-05T14:47:57.671Z,11.20
2019-03-05T14:49:59.502Z,12.00
2019-03-05T14:52:01.497Z,12.70
2019-03-05T14:54:03.341Z,12.90
2019-03-05T14:56:05.190Z,12.70
2019-03-05T14:58:06.958Z,12.10
2019-03-05T15:00:11.434Z,11.30
2019-03-05T15:02:13.320Z,10.50
2019-03-05T15:04:15.025Z,9.80
2019-03-05T15:06:16.965Z,9.20
2019-03-05T15:08:18.825Z,9.00
2019-03-05T15:10:20.729Z,8.80
2019-03-05T15:12:22.689Z,8.60
2019-03-05T15:14:24.508Z,8.50
2019-03-05T15:16:26.197Z,8.50
2019-03-05T15:18:27.952Z,8.70
2019-03-05T15:20:29.980Z,9.40
2019-03-05T15:22:31.772Z,9.70
2019-03-05T15:24:33.858Z,10.60
2019-03-05T15:26:35.724Z,11.40
2019-03-05T15:28:37.531Z,12.10
2019-03-05T15:30:39.481Z,12.40
2019-03-05T15:32:41.301Z,12.50
2019-03-05T15:34:43.088Z,12.80
2019-03-05T15:36:44.898Z,12.20
2019-03-05T15:38:46.600Z,11.40
2019-03-05T15:40:48.302Z,11.20
2019-03-05T15:42:50.940Z,10.50
2019-03-05T15:44:53.179Z,10.10
2019-03-05T15:46:54.887Z,9.50
2019-03-05T15:48:56.685Z,9.20
2019-03-05T15:50:58.425Z,9.20
2019-03-05T15:53:00.227Z,9.30
2019-03-05T15:55:02.272Z,9.30
2019-03-05T15:57:04.181Z,9.60
2019-03-05T15:59:06.103Z,9.30
2019-03-05T16:01:09.820Z,8.90
2019-03-05T16:03:11.769Z,8.90
2019-03-05T16:05:16.749Z,9.50
2019-03-05T16:07:17.429Z,10.20
2019-03-05T16:09:19.366Z,10.50
2019-03-05T16:11:21.085Z,10.20
2019-03-05T16:13:22.797Z,10.20
2019-03-05T16:15:24.668Z,10.40
2019-03-05T16:17:28.158Z,10.70
2019-03-05T16:19:30.102Z,10.40
2019-03-05T16:21:31.813Z,10.40
2019-03-05T16:23:33.524Z,10.10
2019-03-05T16:25:35.357Z,9.70
2019-03-05T16:27:41.173Z,9.50
2019-03-05T16:29:42.883Z,9.40
2019-03-05T16:32:02.713Z,9.30
2019-03-05T16:34:36.239Z,9.10
2019-03-05T16:36:53.660Z,8.90
2019-03-05T16:39:15.364Z,8.70
2019-03-05T16:41:31.570Z,8.50
2019-03-05T16:43:45.095Z,8.40
2019-03-05T16:45:57.325Z,8.40
2019-03-05T16:48:19.079Z,8.30
2019-03-05T16:51:03.097Z,8.20
2019-03-05T16:53:12.604Z,8.10
2019-03-05T16:55:37.033Z,8.10
2019-03-05T16:57:48.713Z,8.10
2019-03-05T17:00:07.635Z,7.90
2019-03-05T17:02:27.989Z,7.90
2019-03-05T17:04:52.300Z,7.80
2019-03-05T17:07:07.469Z,7.80
2019-03-05T17:09:22.743Z,7.70
2019-03-05T17:11:34.873Z,7.60
2019-03-05T17:13:36.576Z,7.60
2019-03-05T17:15:38.339Z,7.50
2019-03-05T17:17:40.054Z,7.50
2019-03-05T17:19:41.765Z,7.50
2019-03-05T17:21:43.481Z,7.40
2019-03-05T17:23:45.641Z,7.40
2019-03-05T17:25:47.583Z,7.30
2019-03-05T17:27:49.395Z,7.30
2019-03-05T17:29:51.277Z,7.20
2019-03-05T17:31:52.983Z,7.20
2019-03-05T17:33:58.062Z,7.20
2019-03-05T17:35:59.770Z,7.10
2019-03-05T17:38:01.720Z,7.20
2019-03-05T17:40:03.751Z,7.20
2019-03-05T17:42:05.719Z,7.10
2019-03-05T17:44:07.914Z,7.10
2019-03-05T17:46:09.890Z,7.10
2019-03-05T17:48:11.868Z,7.10
2019-03-05T17:50:14.179Z,7.00
2019-03-05T17:52:15.921Z,7.00
2019-03-05T17:54:17.634Z,6.90
2019-03-05T17:56:19.545Z,6.90
2019-03-05T17:58:21.347Z,6.90
2019-03-05T18:00:29.338Z,6.90
2019-03-05T18:02:31.087Z,6.90
2019-03-05T18:04:32.909Z,6.80
2019-03-05T18:06:35.116Z,6.80
2019-03-05T18:08:37.005Z,6.80
2019-03-05T18:10:38.841Z,6.80
2019-03-05T18:12:40.545Z,6.80
2019-03-05T18:14:42.274Z,6.70
2019-03-05T18:16:44.386Z,6.80
2019-03-05T18:18:46.115Z,6.70
2019-03-05T18:20:47.960Z,6.60
2019-03-05T18:22:49.868Z,6.60
2019-03-05T18:24:51.629Z,6.60
2019-03-05T18:26:53.702Z,6.60
2019-03-05T18:28:55.404Z,6.60
2019-03-05T18:30:57.123Z,6.60
2019-03-05T18:32:58.857Z,6.60
2019-03-05T18:35:00.749Z,6.60
2019-03-05T18:37:02.864Z,6.60
2019-03-05T18:39:04.822Z,6.50
2019-03-05T18:41:06.995Z,6.50
2019-03-05T18:43:11.468Z,6.50
2019-03-05T18:45:16.658Z,6.50
2019-03-05T18:47:21.610Z,6.40
2019-03-05T18:49:25.065Z,6.40
2019-03-05T18:51:27.531Z,6.40
2019-03-05T18:53:30.287Z,6.30
2019-03-05T18:55:32.596Z,6.30
2019-03-05T18:57:34.874Z,6.30
2019-03-05T18:59:37.370Z,6.30
2019-03-05T19:01:39.195Z,6.30
2019-03-05T19:03:42.933Z,6.30
2019-03-05T19:05:45.013Z,6.30
2019-03-05T19:07:47.170Z,6.30
2019-03-05T19:09:49.541Z,6.20
2019-03-05T19:11:51.410Z,6.20
2019-03-05T19:13:53.127Z,6.10
2019-03-05T19:15:55.229Z,6.10
2019-03-05T19:17:57.149Z,6.00
2019-03-05T19:19:58.919Z,6.00
2019-03-05T19:22:00.637Z,6.00
2019-03-05T19:24:02.401Z,6.00
2019-03-05T19:26:05.560Z,5.90
2019-03-05T19:28:13.017Z,5.90
2019-03-05T19:30:20.008Z,5.90
2019-03-05T19:32:21.836Z,5.90
2019-03-05T19:34:23.675Z,5.90
2019-03-05T19:36:26.037Z,5.90
2019-03-05T19:38:30.905Z,5.90
2019-03-05T19:40:33.641Z,5.90
2019-03-05T19:42:35.349Z,5.90
2019-03-05T19:44:37.262Z,5.90
2019-03-05T19:46:39.289Z,5.80
2019-03-05T19:48:41.018Z,5.80
2019-03-05T19:50:42.904Z,5.90
2019-03-05T19:52:44.871Z,5.90
2019-03-05T19:54:46.916Z,5.90
2019-03-05T19:56:48.642Z,5.90
2019-03-05T19:58:50.355Z,5.90
2019-03-05T20:01:04.151Z,5.90
2019-03-05T20:03:06.160Z,5.90
2019-03-05T20:05:08.605Z,5.80
2019-03-05T20:07:11.014Z,5.80
2019-03-05T20:09:17.200Z,5.80
2019-03-05T20:11:19.046Z,5.80
2019-03-05T20:13:20.980Z,5.80
2019-03-05T20:17:58.819Z,5.80
2019-03-05T20:19:57.521Z,5.80
2019-03-05T20:21:59.254Z,5.80
2019-03-05T20:24:00.964Z,5.70
2019-03-05T20:26:03.005Z,5.70
2019-03-05T20:28:05.377Z,5.70
2019-03-05T20:30:10.646Z,5.70
2019-03-05T20:32:12.605Z,5.70
2019-03-05T20:34:14.899Z,5.60
2019-03-05T20:36:16.685Z,5.60
2019-03-05T20:38:18.589Z,5.60
2019-03-05T20:40:20.413Z,5.70
2019-03-05T20:42:22.290Z,5.70
2019-03-05T20:44:24.433Z,5.70
2019-03-05T20:46:27.285Z,5.60
2019-03-05T20:48:29.002Z,5.60
2019-03-05T20:50:31.842Z,5.60
2019-03-05T20:52:34.081Z,5.70
2019-03-05T20:54:36.203Z,5.70
2019-03-05T20:56:38.089Z,5.70
2019-03-05T20:58:39.844Z,5.70
2019-03-05T21:00:41.820Z,5.70
2019-03-05T21:02:43.646Z,5.70
2019-03-05T21:04:45.481Z,5.70
2019-03-05T21:06:49.346Z,5.70
2019-03-05T21:08:51.049Z,5.60
2019-03-05T21:10:52.912Z,5.60
2019-03-05T21:12:55.248Z,5.60
2019-03-05T21:14:57.550Z,5.60
2019-03-05T21:16:59.327Z,5.50
2019-03-05T21:19:01.272Z,5.50
2019-03-05T21:21:03.223Z,5.50
2019-03-05T21:23:05.576Z,5.50
2019-03-05T21:25:08.570Z,5.50
2019-03-05T21:27:10.330Z,5.50
2019-03-05T21:29:12.492Z,5.40
2019-03-05T21:31:14.219Z,5.40
2019-03-05T21:33:15.940Z,5.40
2019-03-05T21:35:17.910Z,5.40
2019-03-05T21:37:20.660Z,5.40
2019-03-05T21:39:22.370Z,5.40
2019-03-05T21:41:24.175Z,5.30
2019-03-05T21:43:25.902Z,5.30
2019-03-05T21:45:32.593Z,5.20
2019-03-05T21:47:34.640Z,5.20
2019-03-05T21:49:36.365Z,5.20
2019-03-05T21:51:38.157Z,5.20
2019-03-05T21:53:40.225Z,5.10
2019-03-05T21:55:42.032Z,5.10
2019-03-05T21:57:44.426Z,5.10
2019-03-05T21:59:46.146Z,5.10
2019-03-05T22:01:48.077Z,5.10
2019-03-05T22:03:49.914Z,5.10
2019-03-05T22:05:52.828Z,5.00
2019-03-05T22:07:55.065Z,5.00
2019-03-05T22:09:56.850Z,5.00
2019-03-05T22:11:58.574Z,5.00
2019-03-05T22:14:00.373Z,4.90
2019-03-05T22:16:02.334Z,4.90
2019-03-05T22:18:04.456Z,4.80
2019-03-05T22:20:07.828Z,4.80
2019-03-05T22:22:09.532Z,4.90
2019-03-05T22:24:11.809Z,4.90
2019-03-05T22:26:14.756Z,4.80
2019-03-05T22:28:16.484Z,4.90
2019-03-05T22:30:22.937Z,4.80
2019-03-05T22:32:24.682Z,4.80
2019-03-05T22:34:26.381Z,4.90
2019-03-05T22:36:28.130Z,4.90
2019-03-05T22:38:29.842Z,4.90
2019-03-05T22:40:31.553Z,4.90
2019-03-05T22:42:33.259Z,4.90
2019-03-05T22:44:35.157Z,4.90
2019-03-05T22:46:36.876Z,4.90
2019-03-05T22:48:38.581Z,4.90
2019-03-05T22:50:40.414Z,4.90
2019-03-05T22:52:42.228Z,4.80
2019-03-05T22:54:44.055Z,4.80
2019-03-05T22:56:45.801Z,4.90
2019-03-05T22:58:47.621Z,4.90
2019-03-05T23:01:10.165Z,4.90
2019-03-05T23:03:12.887Z,4.80
2019-03-05T23:05:15.109Z,4.80
2019-03-05T23:07:17.208Z,4.80
2019-03-05T23:09:25.692Z,4.80
2019-03-05T23:11:27.631Z,4.80
2019-03-05T23:13:29.833Z,4.80
2019-03-05T23:15:32.343Z,4.90
2019-03-05T23:17:34.070Z,4.90
2019-03-05T23:19:35.881Z,4.80
2019-03-05T23:21:38.066Z,4.80
2019-03-05T23:23:40.125Z,4.80
2019-03-05T23:25:42.525Z,4.80
2019-03-05T23:27:44.384Z,4.70
2019-03-05T23:29:47.546Z,4.70
2019-03-05T23:31:49.296Z,4.70
2019-03-05T23:33:51.109Z,4.60
2019-03-05T23:35:53.668Z,4.70
2019-03-05T23:37:55.503Z,4.70
2019-03-05T23:39:57.422Z,4.70
2019-03-05T23:41:59.225Z,4.60
2019-03-05T23:44:01.027Z,4.60
2019-03-05T23:46:04.248Z,4.60
2019-03-05T23:48:06.258Z,4.60
2019-03-05T23:50:08.165Z,4.60
2019-03-05T23:52:10.002Z,4.50
2019-03-05T23:54:11.961Z,4.50
2019-03-05T23:56:14.021Z,4.40
2019-03-05T23:58:15.956Z,4.40
